Hovedside
METAR-TAF:

METAR-TAF

Lufthavner :

Walvis Bay, Namibia

breddegrad: 22-58-59S, lengdegrad: 014-39E, høyde over havet: 46 m

Gjeldene værobservasjon

Denne rapporten ble laget for 1 time og 51 minutter siden, klokken 13:00 UTC
Vind 13 kt fra Vest
Temperatur 18°C
Luftfuktighet 59%
Trykk 1020 hPa
Sikt 10 km eller mer
ingen skyer under 1500 m og ingen bygeskyer

METAR: FYWB 181300Z 27013KT CAVOK 18/10 Q1020

Tid: 16:51 (14:51 UTC)

Varsel

Denne rapporten ble laget for 4 timer og 51 minutter siden, klokken 10:00 UTC
Varsel gyldig fra 18. klokken 12 UTC til 19. klokken 12 UTC
Vind 3 kt fra Vest
Sikt 10 km eller mer
ingen skyer under 1500 m og ingen bygeskyer
Blir
fra 18. klokken 13 UTC til 18. klokken 15 UTC
Vind 13 kt fra Sør-sørvest

TAF: FYWB 181000Z 1812/1912 27003KT CAVOK BECMG 1813/1815 21013KT

Værobservasjoner og værvarsel for over 4000 flyplasser (METAR- og TAF-rapporter).

Tilgjengelige stasjoner er representert av de røde og gule prikkene på kartet.

Hold musepekeren over prikken for å se navnet på stasjonen.

Klikk så for å se værobservasjoner og -varsler.

For å forandre kartet kan du klikke på den grønne knappen med svart kryss for å zoome inn, på den grønne knappen med strek for å zoome ut, eller på de grønne pilene for å se tilstøtende kart.


METAR-TAF: